Airfield :
LOGIN :

Register | Disclaimer

   EN    FR    IT 

 










Legend :    VFR   Marginal VFR   IFR   Intensive IFR   Very Intensive IFR
Visi :
Ceiling :
>= 8 km
>= 3000ft
5 to 8 km
1000 to 3000 ft
1500m to 5 km
500 to 1000 ft
800 to 1500m
200 to 500 ft
< 800m
< 200 ft
Symbols :   Thunderstorms  Fog  Heavy snow  Heavy precipitations  Wind > 20 kt
SIGMETs :     Misc.  Thunderstorms  Icing  Turbulence  Mountain Waves  Volcanic Ashes







- Airport Elevation : 876 ft
- IATA code : MBX


LJMB - Maribor

CURRENT METAR :
  • 221200Z 34010KT 1500 SN BR SCT006 OVC013 M01/M01 Q1014 R32/494091

EXPIRED METARs :
  • 221130Z 35010KT 1100 R32/1000N SN BR BKN006 OVC013 M01/M02 Q1014 R/SNOCLO
  • 221100Z 35011KT 1100 R32/0900N SN BR VV006 M01/M02 Q1014 R/SNOCLO
  • 221030Z 35012KT 0600 R32/0700N SN VV006 M01/M02 Q1014 R/SNOCLO
  • 221000Z 35011KT 0600 R32/0600N SN VV006 M02/M02 Q1014 RESN R/SNOCLO
  • 220930Z 35011KT 1000 R32/0600N +SN BR VV006 M02/M02 Q1014 R/SNOCLO

TAF TAF LJMB
Valid from the 22 at 12:00 until the 23 at 12:00 UTC


221100Z 2212/2312 01010KT 3500 -SN BR BKN015 OVC027
TEMPO 2212/2312 01015KT
TEMPO 2212/2215 1500 SN BR VV005
TEMPO 2303/2312 1500 SN BR VV005
No reported NOTAMs for that airfield.
1 SIGMET reported for the Ljubljana FIR (LJLA) :
 
Severe turbulence
LJLA SIGMET 4 VALID 221100/221400 LJLJ
LJLA LJUBLJANA FIR SEV TURB FCST SW OF LINE N4536 E01431 - N4606 E01335 SFC/6000FT STNR NC=



MET'MAP, your aeronautical weather chart ! - Copyright ORBIFLY December 2007 - Disclaimer

ORBIFLY MET'MAP TEAM :

Programming & Development : Alexandra Zaïnal
Concept & Development : Baudouin d'Aumeries
Co-Development & Prog : Marc-Olivier Méhu
Technical & hardware support : Manuel Goepfert

Contact : metmap@orbifly.com




SOURCES & CREDITS :

   NOAA